sensor_id;sensor_type;location;lat;lon;timestamp;pressure;altitude;pressure_sealevel;temperature;humidity
5988;BME280;3021;51.000;6.980;2022-11-20T00:02:21;66804.59;;;4.56;100.00
5988;BME280;3021;51.000;6.980;2022-11-20T00:04:47;66809.03;;;4.57;100.00
5988;BME280;3021;51.000;6.980;2022-11-20T00:07:12;66807.88;;;4.56;100.00
5988;BME280;3021;51.000;6.980;2022-11-20T00:09:37;66800.00;;;4.52;100.00
5988;BME280;3021;51.000;6.980;2022-11-20T00:12:03;66798.25;;;4.50;100.00
5988;BME280;3021;51.000;6.980;2022-11-20T00:14:28;66814.78;;;4.62;100.00
5988;BME280;3021;51.000;6.980;2022-11-20T00:16:53;66808.63;;;4.59;100.00
5988;BME280;3021;51.000;6.980;2022-11-20T00:19:19;66817.22;;;4.67;100.00
5988;BME280;3021;51.000;6.980;2022-11-20T00:21:44;66813.06;;;4.61;100.00
5988;BME280;3021;51.000;6.980;2022-11-20T00:24:12;66815.50;;;4.65;100.00
5988;BME280;3021;51.000;6.980;2022-11-20T00:26:38;66806.31;;;4.57;100.00
5988;BME280;3021;51.000;6.980;2022-11-20T00:29:03;66802.84;;;4.54;100.00
5988;BME280;3021;51.000;6.980;2022-11-20T00:31:30;66801.56;;;4.50;100.00
5988;BME280;3021;51.000;6.980;2022-11-20T00:33:55;66796.69;;;4.51;100.00
5988;BME280;3021;51.000;6.980;2022-11-20T00:36:23;66797.13;;;4.49;100.00
5988;BME280;3021;51.000;6.980;2022-11-20T00:38:53;66800.00;;;4.52;100.00
5988;BME280;3021;51.000;6.980;2022-11-20T00:41:19;66799.41;;;4.51;100.00
5988;BME280;3021;51.000;6.980;2022-11-20T00:43:44;66804.59;;;4.56;100.00
5988;BME280;3021;51.000;6.980;2022-11-20T00:46:16;66795.41;;;4.47;100.00
5988;BME280;3021;51.000;6.980;2022-11-20T00:48:41;66795.25;;;4.45;100.00
5988;BME280;3021;51.000;6.980;2022-11-20T00:51:12;66804.00;;;4.55;100.00
5988;BME280;3021;51.000;6.980;2022-11-20T00:53:38;66799.00;;;4.53;100.00
5988;BME280;3021;51.000;6.980;2022-11-20T00:56:06;66802.84;;;4.54;100.00
5988;BME280;3021;51.000;6.980;2022-11-20T00:58:37;66803.59;;;4.57;100.00
5988;BME280;3021;51.000;6.980;2022-11-20T01:03:37;66806.16;;;4.55;100.00
5988;BME280;3021;51.000;6.980;2022-11-20T01:06:07;66803.28;;;4.52;100.00
5988;BME280;3021;51.000;6.980;2022-11-20T01:08:35;66802.84;;;4.54;100.00
5988;BME280;3021;51.000;6.980;2022-11-20T01:11:03;66809.59;;;4.58;100.00
5988;BME280;3021;51.000;6.980;2022-11-20T01:13:30;66815.09;;;4.67;100.00
5988;BME280;3021;51.000;6.980;2022-11-20T01:16:11;66816.09;;;4.66;100.00
5988;BME280;3021;51.000;6.980;2022-11-20T01:18:38;66821.84;;;4.71;100.00
5988;BME280;3021;51.000;6.980;2022-11-20T01:21:12;66827.75;;;4.79;100.00
5988;BME280;3021;51.000;6.980;2022-11-20T01:23:39;66827.00;;;4.76;100.00
5988;BME280;3021;51.000;6.980;2022-11-20T01:26:10;66821.09;;;4.68;100.00
5988;BME280;3021;51.000;6.980;2022-11-20T01:28:36;66822.41;;;4.72;100.00
5988;BME280;3021;51.000;6.980;2022-11-20T01:31:11;66817.81;;;4.67;100.00
5988;BME280;3021;51.000;6.980;2022-11-20T01:33:37;66814.38;;;4.64;100.00
5988;BME280;3021;51.000;6.980;2022-11-20T01:36:06;66805.34;;;4.59;100.00
5988;BME280;3021;51.000;6.980;2022-11-20T01:38:32;66812.63;;;4.63;100.00
5988;BME280;3021;51.000;6.980;2022-11-20T01:40:57;66808.44;;;4.57;100.00
5988;BME280;3021;51.000;6.980;2022-11-20T01:43:23;66797.13;;;4.49;100.00
5988;BME280;3021;51.000;6.980;2022-11-20T01:46:13;66801.56;;;4.50;100.00
5988;BME280;3021;51.000;6.980;2022-11-20T01:49:16;66805.16;;;4.56;100.00
5988;BME280;3021;51.000;6.980;2022-11-20T01:52:16;66801.56;;;4.50;100.00
5988;BME280;3021;51.000;6.980;2022-11-20T01:54:55;66794.81;;;4.47;100.00
5988;BME280;3021;51.000;6.980;2022-11-20T01:57:22;66795.41;;;4.47;100.00
5988;BME280;3021;51.000;6.980;2022-11-20T01:59:56;66798.84;;;4.50;100.00
5988;BME280;3021;51.000;6.980;2022-11-20T02:02:22;66802.72;;;4.52;100.00
5988;BME280;3021;51.000;6.980;2022-11-20T02:04:51;66793.09;;;4.45;100.00
5988;BME280;3021;51.000;6.980;2022-11-20T02:07:19;66791.22;;;4.41;100.00
5988;BME280;3021;51.000;6.980;2022-11-20T02:09:45;66784.88;;;4.36;100.00
5988;BME280;3021;51.000;6.980;2022-11-20T02:12:10;66777.00;;;4.31;100.00
5988;BME280;3021;51.000;6.980;2022-11-20T02:14:56;66769.53;;;4.24;100.00
5988;BME280;3021;51.000;6.980;2022-11-20T02:17:23;66774.72;;;4.29;100.00
5988;BME280;3021;51.000;6.980;2022-11-20T02:19:48;66773.41;;;4.25;100.00
5988;BME280;3021;51.000;6.980;2022-11-20T02:22:28;66780.88;;;4.32;100.00
5988;BME280;3021;51.000;6.980;2022-11-20T02:24:54;66782.75;;;4.36;100.00
5988;BME280;3021;51.000;6.980;2022-11-20T02:27:20;66787.34;;;4.40;100.00
5988;BME280;3021;51.000;6.980;2022-11-20T02:29:59;66787.34;;;4.40;100.00
5988;BME280;3021;51.000;6.980;2022-11-20T02:32:28;66789.66;;;4.42;100.00
5988;BME280;3021;51.000;6.980;2022-11-20T02:34:54;66797.13;;;4.49;100.00
5988;BME280;3021;51.000;6.980;2022-11-20T02:37:21;66804.44;;;4.53;100.00
5988;BME280;3021;51.000;6.980;2022-11-20T02:39:47;66802.72;;;4.52;100.00
5988;BME280;3021;51.000;6.980;2022-11-20T02:42:14;66804.00;;;4.55;100.00
5988;BME280;3021;51.000;6.980;2022-11-20T02:44:39;66805.72;;;4.57;100.00
5988;BME280;3021;51.000;6.980;2022-11-20T02:47:05;66814.22;;;4.62;100.00
5988;BME280;3021;51.000;6.980;2022-11-20T02:49:30;66814.22;;;4.62;100.00
5988;BME280;3021;51.000;6.980;2022-11-20T02:51:56;66804.00;;;4.55;100.00
5988;BME280;3021;51.000;6.980;2022-11-20T02:54:21;66799.41;;;4.51;100.00
5988;BME280;3021;51.000;6.980;2022-11-20T02:56:46;66800.56;;;4.52;100.00
5988;BME280;3021;51.000;6.980;2022-11-20T02:59:12;66794.25;;;4.46;100.00
5988;BME280;3021;51.000;6.980;2022-11-20T03:01:37;66783.31;;;4.37;100.00
5988;BME280;3021;51.000;6.980;2022-11-20T03:04:02;66783.75;;;4.35;100.00
5988;BME280;3021;51.000;6.980;2022-11-20T03:06:28;66783.75;;;4.35;100.00
5988;BME280;3021;51.000;6.980;2022-11-20T03:08:53;66788.19;;;4.36;100.00
5988;BME280;3021;51.000;6.980;2022-11-20T03:11:19;66793.69;;;4.46;100.00
5988;BME280;3021;51.000;6.980;2022-11-20T03:13:45;66789.66;;;4.42;100.00
5988;BME280;3021;51.000;6.980;2022-11-20T03:16:13;66784.47;;;4.38;100.00
5988;BME280;3021;51.000;6.980;2022-11-20T03:18:40;66784.16;;;4.32;100.00
5988;BME280;3021;51.000;6.980;2022-11-20T03:21:06;66780.44;;;4.34;100.00
5988;BME280;3021;51.000;6.980;2022-11-20T03:23:32;66782.16;;;4.36;100.00
5988;BME280;3021;51.000;6.980;2022-11-20T03:26:12;66791.94;;;4.44;100.00
5988;BME280;3021;51.000;6.980;2022-11-20T03:28:38;66790.63;;;4.41;100.00
5988;BME280;3021;51.000;6.980;2022-11-20T03:31:06;66783.31;;;4.37;100.00
5988;BME280;3021;51.000;6.980;2022-11-20T03:33:32;66784.47;;;4.38;100.00
5988;BME280;3021;51.000;6.980;2022-11-20T03:36:01;66787.91;;;4.41;100.00
5988;BME280;3021;51.000;6.980;2022-11-20T03:38:29;66781.03;;;4.35;100.00
5988;BME280;3021;51.000;6.980;2022-11-20T03:41:01;66785.63;;;4.39;100.00
5988;BME280;3021;51.000;6.980;2022-11-20T03:43:28;66785.63;;;4.39;100.00
5988;BME280;3021;51.000;6.980;2022-11-20T03:45:53;66793.69;;;4.46;100.00
5988;BME280;3021;51.000;6.980;2022-11-20T03:48:19;66785.63;;;4.39;100.00
5988;BME280;3021;51.000;6.980;2022-11-20T03:50:44;66787.75;;;4.38;100.00
5988;BME280;3021;51.000;6.980;2022-11-20T03:53:13;66787.50;;;4.43;100.00
5988;BME280;3021;51.000;6.980;2022-11-20T03:55:38;66783.88;;;4.37;100.00
5988;BME280;3021;51.000;6.980;2022-11-20T03:58:03;66783.31;;;4.37;100.00
5988;BME280;3021;51.000;6.980;2022-11-20T04:00:29;66790.22;;;4.43;100.00
5988;BME280;3021;51.000;6.980;2022-11-20T04:02:58;66788.34;;;4.39;100.00
5988;BME280;3021;51.000;6.980;2022-11-20T04:05:24;66785.63;;;4.39;100.00
5988;BME280;3021;51.000;6.980;2022-11-20T04:07:49;66792.53;;;4.45;100.00
5988;BME280;3021;51.000;6.980;2022-11-20T04:10:15;66784.63;;;4.40;100.00
5988;BME280;3021;51.000;6.980;2022-11-20T04:12:40;66784.47;;;4.38;100.00
5988;BME280;3021;51.000;6.980;2022-11-20T04:15:06;66787.34;;;4.40;100.00
5988;BME280;3021;51.000;6.980;2022-11-20T04:17:31;66777.00;;;4.31;100.00
5988;BME280;3021;51.000;6.980;2022-11-20T04:19:56;66769.78;;;4.20;100.00
5988;BME280;3021;51.000;6.980;2022-11-20T04:22:22;66755.75;;;4.12;100.00
5988;BME280;3021;51.000;6.980;2022-11-20T04:24:47;66749.41;;;4.06;100.00
5988;BME280;3021;51.000;6.980;2022-11-20T04:27:12;66733.75;;;3.90;100.00
5988;BME280;3021;51.000;6.980;2022-11-20T04:29:38;66724.56;;;3.82;100.00
5988;BME280;3021;51.000;6.980;2022-11-20T04:32:03;66716.84;;;3.79;100.00
5988;BME280;3021;51.000;6.980;2022-11-20T04:34:28;66718.66;;;3.74;100.00
5988;BME280;3021;51.000;6.980;2022-11-20T04:36:54;66719.38;;;3.77;100.00
5988;BME280;3021;51.000;6.980;2022-11-20T04:39:19;66717.66;;;3.75;100.00
5988;BME280;3021;51.000;6.980;2022-11-20T04:41:44;66718.25;;;3.76;100.00
5988;BME280;3021;51.000;6.980;2022-11-20T04:44:10;66710.03;;;3.66;100.00
5988;BME280;3021;51.000;6.980;2022-11-20T04:46:39;66705.75;;;3.67;100.00
5988;BME280;3021;51.000;6.980;2022-11-20T04:49:05;66711.94;;;3.70;100.00
5988;BME280;3021;51.000;6.980;2022-11-20T04:51:31;66715.38;;;3.73;100.00
5988;BME280;3021;51.000;6.980;2022-11-20T04:53:56;66728.56;;;3.85;100.00
5988;BME280;3021;51.000;6.980;2022-11-20T04:56:22;66735.06;;;3.93;100.00
5988;BME280;3021;51.000;6.980;2022-11-20T04:58:47;66749.25;;;4.04;100.00
5988;BME280;3021;51.000;6.980;2022-11-20T05:01:19;66750.00;;;4.07;100.00
5988;BME280;3021;51.000;6.980;2022-11-20T05:03:45;66762.63;;;4.18;100.00
5988;BME280;3021;51.000;6.980;2022-11-20T05:06:12;66772.81;;;4.25;100.00
5988;BME280;3021;51.000;6.980;2022-11-20T05:08:39;66777.56;;;4.31;100.00
5988;BME280;3021;51.000;6.980;2022-11-20T05:11:16;66785.47;;;4.36;100.00
5988;BME280;3021;51.000;6.980;2022-11-20T05:13:42;66784.06;;;4.40;100.00
5988;BME280;3021;51.000;6.980;2022-11-20T05:16:10;66789.06;;;4.42;100.00
5988;BME280;3021;51.000;6.980;2022-11-20T05:18:36;66794.41;;;4.49;100.00
5988;BME280;3021;51.000;6.980;2022-11-20T05:21:02;66805.56;;;4.54;100.00
5988;BME280;3021;51.000;6.980;2022-11-20T05:23:29;66806.31;;;4.57;100.00
5988;BME280;3021;51.000;6.980;2022-11-20T05:25:55;66804.59;;;4.56;100.00
5988;BME280;3021;51.000;6.980;2022-11-20T05:28:22;66809.03;;;4.57;100.00
5988;BME280;3021;51.000;6.980;2022-11-20T05:30:47;66813.22;;;4.63;100.00
5988;BME280;3021;51.000;6.980;2022-11-20T05:33:13;66812.22;;;4.65;100.00
5988;BME280;3021;51.000;6.980;2022-11-20T05:35:38;66815.94;;;4.63;100.00
5988;BME280;3021;51.000;6.980;2022-11-20T05:38:04;66812.50;;;4.60;100.00
5988;BME280;3021;51.000;6.980;2022-11-20T05:40:29;66811.34;;;4.59;100.00
5988;BME280;3021;51.000;6.980;2022-11-20T05:42:54;66808.06;;;4.59;100.00
5988;BME280;3021;51.000;6.980;2022-11-20T05:45:20;66808.06;;;4.59;100.00
5988;BME280;3021;51.000;6.980;2022-11-20T05:47:45;66803.03;;;4.57;100.00
5988;BME280;3021;51.000;6.980;2022-11-20T05:50:10;66809.78;;;4.60;100.00
5988;BME280;3021;51.000;6.980;2022-11-20T05:52:36;66807.47;;;4.58;100.00
5988;BME280;3021;51.000;6.980;2022-11-20T05:55:01;66809.03;;;4.57;100.00
5988;BME280;3021;51.000;6.980;2022-11-20T05:57:27;66810.91;;;4.61;100.00
5988;BME280;3021;51.000;6.980;2022-11-20T05:59:52;66812.78;;;4.65;100.00
5988;BME280;3021;51.000;6.980;2022-11-20T06:02:17;66812.06;;;4.62;100.00
5988;BME280;3021;51.000;6.980;2022-11-20T06:04:43;66806.31;;;4.57;100.00
5988;BME280;3021;51.000;6.980;2022-11-20T06:07:08;66809.78;;;4.60;100.00
5988;BME280;3021;51.000;6.980;2022-11-20T06:09:33;66798.25;;;4.50;100.00
5988;BME280;3021;51.000;6.980;2022-11-20T06:11:59;66791.38;;;4.44;100.00
5988;BME280;3021;51.000;6.980;2022-11-20T06:14:24;66791.94;;;4.44;100.00
5988;BME280;3021;51.000;6.980;2022-11-20T06:16:49;66791.94;;;4.44;100.00
5988;BME280;3021;51.000;6.980;2022-11-20T06:19:15;66791.22;;;4.41;100.00
5988;BME280;3021;51.000;6.980;2022-11-20T06:21:40;66792.34;;;4.42;100.00
5988;BME280;3021;51.000;6.980;2022-11-20T06:24:06;66775.28;;;4.29;100.00
5988;BME280;3021;51.000;6.980;2022-11-20T06:26:31;66765.78;;;4.16;100.00
5988;BME280;3021;51.000;6.980;2022-11-20T06:28:57;66756.31;;;4.12;100.00
5988;BME280;3021;51.000;6.980;2022-11-20T06:31:24;66760.34;;;4.16;100.00
5988;BME280;3021;51.000;6.980;2022-11-20T06:33:50;66749.41;;;4.06;100.00
5988;BME280;3021;51.000;6.980;2022-11-20T06:36:17;66736.63;;;3.92;100.00
5988;BME280;3021;51.000;6.980;2022-11-20T06:38:43;66718.97;;;3.79;100.00
5988;BME280;3021;51.000;6.980;2022-11-20T06:41:12;66708.06;;;3.69;100.00
5988;BME280;3021;51.000;6.980;2022-11-20T06:43:38;66708.63;;;3.70;100.00
5988;BME280;3021;51.000;6.980;2022-11-20T06:46:03;66706.34;;;3.68;100.00
5988;BME280;3021;51.000;6.980;2022-11-20T06:48:29;66719.38;;;3.77;100.00
5988;BME280;3021;51.000;6.980;2022-11-20T06:50:55;66721.25;;;3.81;100.00
5988;BME280;3021;51.000;6.980;2022-11-20T06:53:21;66722.59;;;3.85;100.00
5988;BME280;3021;51.000;6.980;2022-11-20T06:55:47;66728.75;;;3.88;100.00
5988;BME280;3021;51.000;6.980;2022-11-20T06:58:13;66731.03;;;3.90;100.00
5988;BME280;3021;51.000;6.980;2022-11-20T07:00:39;66729.91;;;3.89;100.00
5988;BME280;3021;51.000;6.980;2022-11-20T07:03:08;66743.50;;;3.98;100.00
5988;BME280;3021;51.000;6.980;2022-11-20T07:05:35;66738.50;;;3.96;100.00
5988;BME280;3021;51.000;6.980;2022-11-20T07:08:00;66730.03;;;3.91;100.00
5988;BME280;3021;51.000;6.980;2022-11-20T07:10:26;66741.78;;;3.97;100.00
5988;BME280;3021;51.000;6.980;2022-11-20T07:12:52;66746.38;;;4.01;100.00
5988;BME280;3021;51.000;6.980;2022-11-20T07:15:19;66747.53;;;4.02;100.00
5988;BME280;3021;51.000;6.980;2022-11-20T07:17:45;66744.81;;;4.02;100.00
5988;BME280;3021;51.000;6.980;2022-11-20T07:20:11;66744.25;;;4.02;100.00
5988;BME280;3021;51.000;6.980;2022-11-20T07:22:36;66749.41;;;4.06;100.00
5988;BME280;3021;51.000;6.980;2022-11-20T07:25:02;66759.03;;;4.12;100.00
5988;BME280;3021;51.000;6.980;2022-11-20T07:27:28;66772.66;;;4.22;100.00
5988;BME280;3021;51.000;6.980;2022-11-20T07:29:54;66774.13;;;4.28;100.00
5988;BME280;3021;51.000;6.980;2022-11-20T07:32:19;66775.69;;;4.27;100.00
5988;BME280;3021;51.000;6.980;2022-11-20T07:34:44;66775.84;;;4.30;100.00
5988;BME280;3021;51.000;6.980;2022-11-20T07:37:10;66786.03;;;4.37;100.00
5988;BME280;3021;51.000;6.980;2022-11-20T07:39:35;66791.94;;;4.44;100.00
5988;BME280;3021;51.000;6.980;2022-11-20T07:42:00;66799.25;;;4.48;100.00
5988;BME280;3021;51.000;6.980;2022-11-20T07:44:26;66804.75;;;4.58;100.00
5988;BME280;3021;51.000;6.980;2022-11-20T07:46:51;66823.00;;;4.72;100.00
5988;BME280;3021;51.000;6.980;2022-11-20T07:49:16;66831.03;;;4.79;100.00
5988;BME280;3021;51.000;6.980;2022-11-20T07:51:42;66836.38;;;4.87;100.00
5988;BME280;3021;51.000;6.980;2022-11-20T07:54:07;66853.72;;;4.95;100.00
5988;BME280;3021;51.000;6.980;2022-11-20T07:56:32;66845.84;;;4.90;100.00
5988;BME280;3021;51.000;6.980;2022-11-20T07:58:57;66852.56;;;4.94;100.00
5988;BME280;3021;51.000;6.980;2022-11-20T08:01:23;66848.28;;;4.95;100.00
5988;BME280;3021;51.000;6.980;2022-11-20T08:03:48;66845.41;;;4.92;100.00
5988;BME280;3021;51.000;6.980;2022-11-20T08:06:13;66853.47;;;4.99;100.00
5988;BME280;3021;51.000;6.980;2022-11-20T08:08:39;66859.22;;;5.05;100.00
5988;BME280;3021;51.000;6.980;2022-11-20T08:11:05;66850.75;;;4.99;100.00
5988;BME280;3021;51.000;6.980;2022-11-20T08:13:50;66850.00;;;4.96;100.00
5988;BME280;3021;51.000;6.980;2022-11-20T08:16:34;66851.00;;;4.95;100.00
5988;BME280;3021;51.000;6.980;2022-11-20T08:18:59;66832.19;;;4.80;100.00
5988;BME280;3021;51.000;6.980;2022-11-20T08:21:24;66833.91;;;4.82;100.00
5988;BME280;3021;51.000;6.980;2022-11-20T08:23:50;66834.47;;;4.82;100.00
5988;BME280;3021;51.000;6.980;2022-11-20T08:26:15;66835.63;;;4.83;100.00
5988;BME280;3021;51.000;6.980;2022-11-20T08:28:40;66850.75;;;4.99;100.00
5988;BME280;3021;51.000;6.980;2022-11-20T08:31:06;66880.75;;;5.19;100.00
5988;BME280;3021;51.000;6.980;2022-11-20T08:33:31;66878.75;;;5.22;100.00
5988;BME280;3021;51.000;6.980;2022-11-20T08:36:02;66892.41;;;5.32;100.00
5988;BME280;3021;51.000;6.980;2022-11-20T08:38:28;66890.25;;;5.32;100.00
5988;BME280;3021;51.000;6.980;2022-11-20T08:40:59;66906.97;;;5.47;100.00
5988;BME280;3021;51.000;6.980;2022-11-20T08:43:44;66909.81;;;5.50;100.00
5988;BME280;3021;51.000;6.980;2022-11-20T08:46:09;66912.13;;;5.52;100.00
5988;BME280;3021;51.000;6.980;2022-11-20T08:48:34;66933.00;;;5.73;100.00
5988;BME280;3021;51.000;6.980;2022-11-20T08:51:00;66944.50;;;5.83;100.00
5988;BME280;3021;51.000;6.980;2022-11-20T08:53:26;66962.78;;;5.97;100.00
5988;BME280;3021;51.000;6.980;2022-11-20T08:55:51;66970.84;;;6.04;100.00
5988;BME280;3021;51.000;6.980;2022-11-20T08:58:17;66981.78;;;6.14;100.00
5988;BME280;3021;51.000;6.980;2022-11-20T09:00:42;66982.94;;;6.15;100.00
5988;BME280;3021;51.000;6.980;2022-11-20T09:03:07;66973.16;;;6.07;100.00
5988;BME280;3021;51.000;6.980;2022-11-20T09:05:32;66984.09;;;6.16;100.00
5988;BME280;3021;51.000;6.980;2022-11-20T09:07:58;67001.38;;;6.32;100.00
5988;BME280;3021;51.000;6.980;2022-11-20T09:10:24;67007.53;;;6.35;100.00
5988;BME280;3021;51.000;6.980;2022-11-20T09:12:51;66999.03;;;6.30;100.00
5988;BME280;3021;51.000;6.980;2022-11-20T09:15:17;66989.84;;;6.21;100.00
5988;BME280;3021;51.000;6.980;2022-11-20T09:17:53;66983.50;;;6.16;100.00
5988;BME280;3021;51.000;6.980;2022-11-20T09:20:19;67014.03;;;6.43;100.00
5988;BME280;3021;51.000;6.980;2022-11-20T09:22:44;67025.13;;;6.55;100.00
5988;BME280;3021;51.000;6.980;2022-11-20T09:25:10;67007.84;;;6.40;100.00
5988;BME280;3021;51.000;6.980;2022-11-20T09:27:35;67015.00;;;6.42;100.00
5988;BME280;3021;51.000;6.980;2022-11-20T09:30:01;67022.66;;;6.51;100.00
5988;BME280;3021;51.000;6.980;2022-11-20T09:32:26;67061.81;;;6.86;100.00
5988;BME280;3021;51.000;6.980;2022-11-20T09:34:51;67100.56;;;7.23;100.00
5988;BME280;3021;51.000;6.980;2022-11-20T09:37:16;67127.66;;;7.47;100.00
5988;BME280;3021;51.000;6.980;2022-11-20T09:39:42;67143.66;;;7.59;100.00
5988;BME280;3021;51.000;6.980;2022-11-20T09:42:31;67125.19;;;7.42;100.00
5988;BME280;3021;51.000;6.980;2022-11-20T09:55:38;67068.31;;;6.94;100.00
5988;BME280;3021;51.000;6.980;2022-11-20T09:58:15;67072.75;;;6.96;100.00
5988;BME280;3021;51.000;6.980;2022-11-20T10:00:41;67086.03;;;7.07;100.00
5988;BME280;3021;51.000;6.980;2022-11-20T10:05:44;67110.78;;;7.30;100.00
5988;BME280;3021;51.000;6.980;2022-11-20T10:10:47;67153.00;;;7.70;100.00
5988;BME280;3021;51.000;6.980;2022-11-20T10:15:53;67143.66;;;7.59;100.00
5988;BME280;3021;51.000;6.980;2022-11-20T10:24:24;67101.56;;;7.21;100.00
5988;BME280;3021;51.000;6.980;2022-11-20T10:29:47;67054.34;;;6.79;100.00
5988;BME280;3021;51.000;6.980;2022-11-20T10:32:20;67042.66;;;6.66;100.00
5988;BME280;3021;51.000;6.980;2022-11-20T10:34:59;67029.00;;;6.56;100.00
5988;BME280;3021;51.000;6.980;2022-11-20T10:37:27;67022.09;;;6.50;100.00
5988;BME280;3021;51.000;6.980;2022-11-20T10:40:00;67037.63;;;6.64;100.00
5988;BME280;3021;51.000;6.980;2022-11-20T10:45:13;67077.38;;;7.00;100.00
5988;BME280;3021;51.000;6.980;2022-11-20T10:47:41;67104.59;;;7.26;100.00
5988;BME280;3021;51.000;6.980;2022-11-20T10:50:11;67146.66;;;7.64;100.00
5988;BME280;3021;51.000;6.980;2022-11-20T10:55:49;67162.66;;;7.76;100.00
5988;BME280;3021;51.000;6.980;2022-11-20T10:58:24;67129.97;;;7.49;100.00
5988;BME280;3021;51.000;6.980;2022-11-20T11:01:23;67093.94;;;7.12;100.00
5988;BME280;3021;51.000;6.980;2022-11-20T11:03:52;67090.03;;;7.11;100.00
5988;BME280;3021;51.000;6.980;2022-11-20T11:06:39;67083.72;;;7.05;100.00
5988;BME280;3021;51.000;6.980;2022-11-20T11:09:13;67062.97;;;6.87;100.00
5988;BME280;3021;51.000;6.980;2022-11-20T11:11:40;67051.44;;;6.77;100.00
5988;BME280;3021;51.000;6.980;2022-11-20T11:14:10;67070.63;;;6.96;100.00
5988;BME280;3021;51.000;6.980;2022-11-20T11:16:48;67080.25;;;7.02;100.00
5988;BME280;3021;51.000;6.980;2022-11-20T11:19:14;67079.09;;;7.01;100.00
5988;BME280;3021;51.000;6.980;2022-11-20T11:21:46;67081.41;;;7.03;100.00
5988;BME280;3021;51.000;6.980;2022-11-20T11:24:22;67066.00;;;6.92;100.00
5988;BME280;3021;51.000;6.980;2022-11-20T11:26:59;67046.00;;;6.77;100.00
5988;BME280;3021;51.000;6.980;2022-11-20T11:29:28;67029.00;;;6.56;100.00
5988;BME280;3021;51.000;6.980;2022-11-20T11:32:12;67041.09;;;6.67;100.00
5988;BME280;3021;51.000;6.980;2022-11-20T11:34:38;67048.16;;;6.76;100.00
5988;BME280;3021;51.000;6.980;2022-11-20T11:37:04;67049.28;;;6.77;100.00
5988;BME280;3021;51.000;6.980;2022-11-20T11:39:31;67055.34;;;6.78;100.00
5988;BME280;3021;51.000;6.980;2022-11-20T11:41:58;67060.25;;;6.87;100.00
5988;BME280;3021;51.000;6.980;2022-11-20T11:44:30;67090.03;;;7.11;100.00
5988;BME280;3021;51.000;6.980;2022-11-20T11:47:24;67083.72;;;7.05;100.00
5988;BME280;3021;51.000;6.980;2022-11-20T11:55:30;67096.94;;;7.17;100.00
5988;BME280;3021;51.000;6.980;2022-11-20T11:58:28;67103.28;;;7.23;100.00
5988;BME280;3021;51.000;6.980;2022-11-20T12:03:44;67118.28;;;7.36;100.00
5988;BME280;3021;51.000;6.980;2022-11-20T12:06:17;67106.34;;;7.28;100.00
5988;BME280;3021;51.000;6.980;2022-11-20T12:08:49;67102.16;;;7.22;100.00
5988;BME280;3021;51.000;6.980;2022-11-20T12:13:52;67109.06;;;7.28;100.00
5988;BME280;3021;51.000;6.980;2022-11-20T12:16:19;67106.75;;;7.26;100.00
5988;BME280;3021;51.000;6.980;2022-11-20T12:18:49;67109.22;;;7.31;100.00
5988;BME280;3021;51.000;6.980;2022-11-20T12:32:01;67097.84;;;7.23;100.00
5988;BME280;3021;51.000;6.980;2022-11-20T12:41:25;67083.44;;;7.10;100.00
5988;BME280;3021;51.000;6.980;2022-11-20T12:43:23;67068.31;;;6.94;100.00
5988;BME280;3021;51.000;6.980;2022-11-20T12:59:46;67097.09;;;7.20;100.00
5988;BME280;3021;51.000;6.980;2022-11-20T13:02:23;67107.91;;;7.27;100.00
5988;BME280;3021;51.000;6.980;2022-11-20T13:07:25;67117.69;;;7.36;100.00
5988;BME280;3021;51.000;6.980;2022-11-20T13:09:53;67130.13;;;7.52;100.00
5988;BME280;3021;51.000;6.980;2022-11-20T13:12:31;67128.25;;;7.48;100.00
5988;BME280;3021;51.000;6.980;2022-11-20T13:15:14;67136.88;;;7.55;100.00
5988;BME280;3021;51.000;6.980;2022-11-20T13:17:50;67144.38;;;7.62;100.00
5988;BME280;3021;51.000;6.980;2022-11-20T13:20:19;67117.69;;;7.36;100.00
5988;BME280;3021;51.000;6.980;2022-11-20T13:22:45;67128.66;;;7.46;100.00
5988;BME280;3021;51.000;6.980;2022-11-20T13:27:49;67128.09;;;7.45;100.00
5988;BME280;3021;51.000;6.980;2022-11-20T13:30:17;67140.31;;;7.58;100.00
5988;BME280;3021;51.000;6.980;2022-11-20T13:35:32;67118.28;;;7.36;100.00
5988;BME280;3021;51.000;6.980;2022-11-20T13:38:10;67134.41;;;7.51;100.00
5988;BME280;3021;51.000;6.980;2022-11-20T13:40:38;67159.78;;;7.73;100.00
5988;BME280;3021;51.000;6.980;2022-11-20T13:43:22;67169.75;;;7.85;100.00
5988;BME280;3021;51.000;6.980;2022-11-20T13:45:57;67123.03;;;7.43;100.00
5988;BME280;3021;51.000;6.980;2022-11-20T13:48:26;67133.84;;;7.50;100.00
5988;BME280;3021;51.000;6.980;2022-11-20T13:50:59;67145.78;;;7.58;100.00
5988;BME280;3021;51.000;6.980;2022-11-20T13:53:46;67154.00;;;7.68;100.00
5988;BME280;3021;51.000;6.980;2022-11-20T14:01:45;67124.78;;;7.44;100.00
5988;BME280;3021;51.000;6.980;2022-11-20T14:04:15;67126.91;;;7.44;100.00
5988;BME280;3021;51.000;6.980;2022-11-20T14:06:45;67128.66;;;7.46;100.00
5988;BME280;3021;51.000;6.980;2022-11-20T14:09:13;67127.22;;;7.49;100.00
5988;BME280;3021;51.000;6.980;2022-11-20T14:11:49;67131.53;;;7.48;100.00
5988;BME280;3021;51.000;6.980;2022-11-20T14:14:22;67127.50;;;7.44;100.00
5988;BME280;3021;51.000;6.980;2022-11-20T14:16:49;67120.75;;;7.41;100.00
5988;BME280;3021;51.000;6.980;2022-11-20T14:21:54;67117.56;;;7.33;100.00
5988;BME280;3021;51.000;6.980;2022-11-20T14:24:31;67110.38;;;7.32;100.00
5988;BME280;3021;51.000;6.980;2022-11-20T14:26:56;67116.72;;;7.37;100.00
5988;BME280;3021;51.000;6.980;2022-11-20T14:29:27;67127.06;;;7.47;100.00
5988;BME280;3021;51.000;6.980;2022-11-20T14:31:54;67117.13;;;7.35;100.00
5988;BME280;3021;51.000;6.980;2022-11-20T14:34:25;67120.16;;;7.40;100.00
5988;BME280;3021;51.000;6.980;2022-11-20T14:37:00;67124.63;;;7.42;100.00
5988;BME280;3021;51.000;6.980;2022-11-20T14:39:40;67122.91;;;7.40;100.00
5988;BME280;3021;51.000;6.980;2022-11-20T14:42:17;67121.91;;;7.42;100.00
5988;BME280;3021;51.000;6.980;2022-11-20T14:44:43;67098.84;;;7.21;100.00
5988;BME280;3021;51.000;6.980;2022-11-20T14:47:11;67105.44;;;7.22;100.00
5988;BME280;3021;51.000;6.980;2022-11-20T14:49:38;67108.06;;;7.30;100.00
5988;BME280;3021;51.000;6.980;2022-11-20T14:52:21;67109.63;;;7.29;100.00
5988;BME280;3021;51.000;6.980;2022-11-20T14:54:49;67111.34;;;7.30;100.00
5988;BME280;3021;51.000;6.980;2022-11-20T14:57:35;67117.69;;;7.36;100.00
5988;BME280;3021;51.000;6.980;2022-11-20T15:02:33;67098.28;;;7.21;100.00
5988;BME280;3021;51.000;6.980;2022-11-20T15:05:00;67104.03;;;7.26;100.00
5988;BME280;3021;51.000;6.980;2022-11-20T15:07:35;67108.50;;;7.28;100.00